Time;durP1;ratioP1;P1;durP2;ratioP2;P2;SDS_P1;SDS_P2;PMS_P1;PMS_P2;Temp;Humidity;BMP_temperature;BMP_pressure;BME280_temperature;BME280_humidity;BME280_pressure;Samples;Min_cycle;Max_cycle;Signal;HPM_P1;HPM_P2
2022/08/14 00:01:16;;;;;;;;;7.50;7.25;;;;;29.75;21.41;100083.00;5075352;27;45537;-81
2022/08/14 00:03:42;;;;;;;;;8.00;7.25;;;;;29.70;21.69;100072.94;5073164;28;47176;-81
2022/08/14 00:09:29;;;;;;;;;6.25;6.25;;;;;29.61;22.00;100060.94;5063517;28;45810;-83
2022/08/14 00:11:55;;;;;;;;;7.00;6.00;;;;;29.64;21.53;100063.13;5073472;28;45919;-80
2022/08/14 00:14:21;;;;;;;;;6.50;6.00;;;;;29.62;21.72;100065.25;5074716;27;45482;-82
2022/08/14 00:16:47;;;;;;;;;5.00;5.00;;;;;29.58;21.44;100064.91;5074534;28;46498;-81
2022/08/14 00:19:12;;;;;;;;;6.50;6.25;;;;;29.54;21.50;100054.88;5074787;28;45695;-82
2022/08/14 00:21:38;;;;;;;;;6.50;6.50;;;;;29.53;22.03;100056.75;5074458;27;45446;-83
2022/08/14 00:24:04;;;;;;;;;5.00;5.00;;;;;29.48;22.18;100045.03;5074389;28;46677;-83
2022/08/14 00:26:29;;;;;;;;;3.00;3.00;;;;;29.44;22.12;100042.03;5074619;27;46184;-82
2022/08/14 00:28:55;;;;;;;;;3.00;3.00;;;;;29.42;22.29;100044.16;5074243;27;45626;-81
2022/08/14 00:31:22;;;;;;;;;5.25;5.25;;;;;29.38;21.82;100034.91;5074468;27;45677;-81
2022/08/14 00:33:47;;;;;;;;;4.00;4.00;;;;;29.37;22.09;100037.84;5074368;27;46615;-81
2022/08/14 00:39:34;;;;;;;;;3.50;3.50;;;;;29.30;22.03;100029.09;5077252;28;45472;-79
2022/08/14 00:41:59;;;;;;;;;3.25;2.75;;;;;29.27;22.17;100032.25;5077604;27;45876;-81
2022/08/14 00:44:25;;;;;;;;;3.75;3.75;;;;;29.26;22.23;100030.66;5077296;27;46308;-81
2022/08/14 00:46:50;;;;;;;;;4.00;4.00;;;;;29.22;21.95;100030.31;5074495;27;46438;-82
2022/08/14 00:49:16;;;;;;;;;4.25;4.25;;;;;29.18;22.48;100027.28;5074290;27;45726;-79
2022/08/14 00:55:07;;;;;;;;;3.00;3.00;;;;;29.08;22.24;100024.41;5073786;28;45992;-77
2022/08/14 00:57:34;;;;;;;;;4.00;4.00;;;;;29.06;22.86;100014.91;5074080;27;46120;-81
2022/08/14 01:00:01;;;;;;;;;3.00;3.00;;;;;29.01;22.50;100015.66;5074489;27;45990;-81
2022/08/14 01:02:27;;;;;;;;;3.25;3.25;;;;;29.00;22.37;100014.00;5074304;28;45462;-81
2022/08/14 01:04:56;;;;;;;;;3.50;3.00;;;;;28.97;22.73;100002.91;5073568;27;46632;-81
2022/08/14 01:07:24;;;;;;;;;4.00;3.50;;;;;28.92;22.65;100003.63;5073788;27;46039;-81
2022/08/14 01:09:52;;;;;;;;;3.50;3.25;;;;;28.89;22.50;99992.50;5073701;28;45895;-81
2022/08/14 01:12:18;;;;;;;;;4.50;3.50;;;;;28.85;22.51;99984.09;5073918;27;45461;-81
2022/08/14 01:14:43;;;;;;;;;3.75;3.25;;;;;28.83;22.85;99986.19;5076546;27;45613;-82
2022/08/14 01:17:09;;;;;;;;;4.50;4.50;;;;;28.82;23.14;99979.19;5077288;27;45526;-81
2022/08/14 01:22:19;;;;;;;;;5.00;4.75;;;;;28.74;23.33;99969.59;5077167;28;45487;-81
2022/08/14 01:24:45;;;;;;;;;3.00;3.00;;;;;28.72;23.53;99965.47;5076934;28;46642;-78
2022/08/14 01:27:18;;;;;;;;;4.00;3.75;;;;;28.65;23.65;99962.94;5077012;27;45564;-81
2022/08/14 01:29:53;;;;;;;;;3.00;3.00;;;;;28.63;23.11;99975.84;5077131;27;45459;-81
2022/08/14 01:32:20;;;;;;;;;3.50;3.50;;;;;28.58;23.76;99969.53;5077174;27;45612;-81
2022/08/14 01:34:54;;;;;;;;;4.75;4.00;;;;;28.57;22.99;99973.28;5076965;27;45684;-81
2022/08/14 01:37:24;;;;;;;;;6.00;5.00;;;;;28.52;23.56;99978.59;5077023;27;46236;-82
2022/08/14 01:39:51;;;;;;;;;5.00;5.00;;;;;28.51;23.97;99971.56;5076962;27;45753;-81
2022/08/14 01:42:18;;;;;;;;;4.50;4.50;;;;;28.48;23.68;99978.28;5076972;27;45665;-78
2022/08/14 01:44:49;;;;;;;;;6.00;5.00;;;;;28.45;23.67;99981.44;5076950;28;46372;-80
2022/08/14 01:47:15;;;;;;;;;4.25;4.25;;;;;28.47;23.53;99983.91;5076884;27;46317;-81
2022/08/14 01:49:41;;;;;;;;;3.25;3.25;;;;;28.44;24.26;99976.31;5076903;28;45603;-82
2022/08/14 01:52:07;;;;;;;;;5.00;5.00;;;;;28.43;23.30;99974.66;5076831;28;45659;-80
2022/08/14 01:54:34;;;;;;;;;4.00;3.00;;;;;28.39;23.94;99980.50;5076703;28;45509;-80
2022/08/14 01:57:00;;;;;;;;;4.00;4.00;;;;;28.34;24.09;99969.63;5076856;27;45631;-81
2022/08/14 01:59:32;;;;;;;;;4.25;4.25;;;;;28.32;24.06;99968.25;5076803;27;45687;-82
2022/08/14 02:02:08;;;;;;;;;4.75;4.25;;;;;28.29;24.26;99969.53;5076875;27;45639;-81
2022/08/14 02:04:35;;;;;;;;;5.00;4.50;;;;;28.23;24.22;99965.09;5075218;28;47496;-81
2022/08/14 02:10:21;;;;;;;;;4.75;4.00;;;;;28.20;24.09;99959.41;5067751;28;45937;-81
2022/08/14 02:12:47;;;;;;;;;4.00;4.00;;;;;28.18;23.93;99956.94;5076854;27;45865;-81
2022/08/14 02:15:17;;;;;;;;;5.75;5.00;;;;;28.16;24.05;99958.25;5076801;27;45952;-80
2022/08/14 02:17:43;;;;;;;;;4.00;3.50;;;;;28.14;24.50;99946.88;5076583;27;46037;-80
2022/08/14 02:20:09;;;;;;;;;5.00;4.50;;;;;28.16;24.34;99944.78;5076126;27;45597;-82
2022/08/14 02:22:35;;;;;;;;;4.50;4.50;;;;;28.16;24.20;99944.78;5076784;27;45585;-80
2022/08/14 02:25:01;;;;;;;;;5.00;5.00;;;;;28.15;24.30;99943.94;5075492;27;45563;-80
2022/08/14 02:27:28;;;;;;;;;3.50;3.00;;;;;28.13;24.36;99932.59;5076500;27;45720;-80
2022/08/14 02:29:55;;;;;;;;;4.50;4.00;;;;;28.14;24.31;99930.72;5076278;28;45594;-81
2022/08/14 02:32:20;;;;;;;;;5.00;4.25;;;;;28.12;24.05;99924.72;5076474;27;45850;-82
2022/08/14 02:34:46;;;;;;;;;5.75;5.75;;;;;28.13;24.74;99921.81;5094104;27;47454;-78
2022/08/14 02:40:33;;;;;;;;;5.00;4.25;;;;;28.09;24.96;99927.88;5079360;28;45537;-79
2022/08/14 02:42:59;;;;;;;;;4.00;4.00;;;;;28.03;24.65;99916.19;5079350;28;45505;-76
2022/08/14 02:45:31;;;;;;;;;4.25;4.00;;;;;28.01;24.50;99912.94;5079759;28;45667;-79
2022/08/14 02:47:57;;;;;;;;;4.75;4.25;;;;;27.98;24.09;99913.41;5079205;27;46045;-80
2022/08/14 02:50:22;;;;;;;;;4.25;4.25;;;;;27.95;24.46;99913.91;5079556;27;45506;-81
2022/08/14 02:52:48;;;;;;;;;5.00;5.00;;;;;27.93;24.78;99900.66;5079562;28;45525;-79
2022/08/14 02:55:13;;;;;;;;;4.00;4.00;;;;;27.92;24.91;99903.59;5079608;27;46388;-81
2022/08/14 02:57:39;;;;;;;;;5.00;5.00;;;;;27.87;25.23;99892.72;5079337;27;47339;-81
2022/08/14 03:00:05;;;;;;;;;4.00;4.00;;;;;27.85;24.54;99897.53;5080008;27;45787;-80
2022/08/14 03:02:33;;;;;;;;;4.75;4.25;;;;;27.84;25.02;99901.28;5078636;27;45754;-79
2022/08/14 03:04:59;;;;;;;;;3.75;3.75;;;;;27.82;24.89;99900.69;5078428;27;45568;-80
2022/08/14 03:07:24;;;;;;;;;4.00;4.00;;;;;27.80;24.97;99906.31;5078267;27;46265;-75
2022/08/14 03:09:50;;;;;;;;;3.25;3.25;;;;;27.77;24.63;99914.88;5078630;27;45574;-80
2022/08/14 03:12:15;;;;;;;;;5.00;4.00;;;;;27.76;25.12;99907.03;5078792;27;45891;-79
2022/08/14 03:14:48;;;;;;;;;5.25;4.75;;;;;27.73;24.58;99908.34;5078431;27;45847;-81
2022/08/14 03:17:14;;;;;;;;;4.25;4.00;;;;;27.68;24.89;99902.03;5076743;27;46039;-81
2022/08/14 03:19:39;;;;;;;;;3.50;3.50;;;;;27.66;25.23;99904.94;5076672;28;45806;-81
2022/08/14 03:25:32;;;;;;;;;4.75;4.75;;;;;27.58;24.97;99913.41;5080306;28;45704;-80
2022/08/14 03:28:02;;;;;;;;;6.75;5.50;;;;;27.54;25.18;99913.03;5080460;28;46615;-83
2022/08/14 03:30:29;;;;;;;;;4.00;4.00;;;;;27.49;25.26;99902.13;5080641;27;45697;-81
2022/08/14 03:32:56;;;;;;;;;4.00;4.00;;;;;27.48;24.89;99903.19;5080379;27;45715;-81
2022/08/14 03:35:21;;;;;;;;;4.75;3.50;;;;;27.42;25.05;99890.66;5076062;28;45805;-79
2022/08/14 03:37:47;;;;;;;;;3.75;3.75;;;;;27.40;25.27;99894.66;5075109;27;46320;-81
2022/08/14 03:40:12;;;;;;;;;4.00;4.00;;;;;27.40;25.31;99900.06;5075493;27;45561;-79
2022/08/14 03:42:38;;;;;;;;;4.00;4.00;;;;;27.36;25.55;99888.94;5074972;27;45540;-79
2022/08/14 03:45:05;;;;;;;;;5.75;5.00;;;;;27.34;25.66;99904.50;5075195;28;46676;-79
2022/08/14 03:47:31;;;;;;;;;4.75;4.50;;;;;27.33;25.47;99896.66;5074974;28;45917;-80
2022/08/14 03:49:57;;;;;;;;;5.00;5.00;;;;;27.33;25.56;99902.03;5073237;28;45624;-80
2022/08/14 03:55:45;;;;;;;;;6.00;6.00;;;;;27.30;25.62;99916.78;5074705;28;46079;-78
2022/08/14 03:58:10;;;;;;;;;4.50;4.00;;;;;27.29;26.05;99919.72;5074843;27;45674;-82
2022/08/14 04:00:37;;;;;;;;;4.00;4.00;;;;;27.30;25.98;99922.19;5074842;27;45644;-82
2022/08/14 04:03:05;;;;;;;;;5.00;4.50;;;;;27.30;25.79;99932.94;5076815;28;45663;-77
2022/08/14 04:05:31;;;;;;;;;5.00;5.00;;;;;27.32;25.82;99935.38;5074863;27;45566;-77
2022/08/14 04:07:57;;;;;;;;;5.00;5.00;;;;;27.31;25.93;99937.28;5074650;27;46339;-80
2022/08/14 04:10:23;;;;;;;;;6.00;5.50;;;;;27.30;25.88;99935.63;5075491;27;45782;-81
2022/08/14 04:12:48;;;;;;;;;5.00;4.25;;;;;27.30;25.71;99926.75;5075138;27;45867;-80
2022/08/14 04:15:15;;;;;;;;;4.50;4.50;;;;;27.28;25.99;99932.34;5075202;28;46509;-79
2022/08/14 04:17:42;;;;;;;;;4.75;4.75;;;;;27.26;25.62;99934.44;5090216;27;47089;-81
2022/08/14 04:20:08;;;;;;;;;5.00;5.00;;;;;27.21;26.33;99928.94;5074622;28;45580;-81
2022/08/14 04:25:56;;;;;;;;;4.75;4.75;;;;;27.14;26.24;99941.72;5074188;28;45635;-80
2022/08/14 04:28:23;;;;;;;;;5.00;5.00;;;;;27.13;25.98;99937.38;5074319;27;46610;-78
2022/08/14 04:30:48;;;;;;;;;5.00;4.25;;;;;27.09;26.43;99925.47;5074322;27;45549;-81
2022/08/14 04:33:15;;;;;;;;;5.00;5.00;;;;;27.10;26.18;99914.44;5074462;27;45644;-80
2022/08/14 04:35:40;;;;;;;;;5.25;5.00;;;;;27.09;26.26;99915.53;5073840;27;46481;-80
2022/08/14 04:43:35;;;;;;;;;5.25;3.50;;;;;27.02;26.48;99904.03;5073497;28;45650;-81
2022/08/14 04:46:11;;;;;;;;;6.75;5.00;;;;;26.98;26.03;99897.50;5073618;27;46238;-80
2022/08/14 04:48:38;;;;;;;;;5.25;5.00;;;;;26.94;26.37;99895.50;5074737;27;46254;-79
2022/08/14 04:51:05;;;;;;;;;5.25;5.00;;;;;26.91;26.75;99891.41;5076999;27;45687;-77
2022/08/14 04:53:32;;;;;;;;;4.25;4.25;;;;;26.90;26.38;99894.31;5076910;27;45720;-80
2022/08/14 04:55:57;;;;;;;;;4.50;4.50;;;;;26.86;26.65;99885.06;5076988;27;45936;-81
2022/08/14 04:58:28;;;;;;;;;3.50;3.00;;;;;26.85;26.67;99883.41;5076460;27;46570;-81
2022/08/14 05:00:56;;;;;;;;;5.00;4.00;;;;;26.81;26.45;99877.69;5077034;27;45573;-80
2022/08/14 05:03:27;;;;;;;;;4.00;3.25;;;;;26.78;26.87;99872.78;5076899;28;45823;-80
2022/08/14 05:05:55;;;;;;;;;5.25;4.75;;;;;26.77;26.79;99865.78;5076709;27;45584;-78
2022/08/14 05:08:22;;;;;;;;;4.00;4.00;;;;;26.72;27.26;99860.28;5076689;27;46441;-79
2022/08/14 05:10:53;;;;;;;;;4.75;4.75;;;;;26.66;26.88;99859.34;5092167;27;45889;-80
2022/08/14 05:13:21;;;;;;;;;6.00;5.00;;;;;26.64;26.81;99860.63;5076782;27;45501;-81
2022/08/14 05:15:46;;;;;;;;;4.00;4.00;;;;;26.61;27.14;99853.03;5076925;27;45886;-81
2022/08/14 05:18:14;;;;;;;;;4.00;4.00;;;;;26.59;27.01;99868.56;5076523;27;45734;-81
2022/08/14 05:20:44;;;;;;;;;4.25;4.00;;;;;26.55;27.45;99887.00;5076703;27;45704;-80
2022/08/14 05:23:14;;;;;;;;;5.25;5.00;;;;;26.54;27.00;99884.56;5076299;27;45599;-81
2022/08/14 05:25:40;;;;;;;;;5.50;4.50;;;;;26.53;27.08;99890.97;5077094;27;46935;-81
2022/08/14 05:28:18;;;;;;;;;5.00;5.00;;;;;26.51;27.05;99899.25;5076318;28;46234;-81
2022/08/14 05:30:45;;;;;;;;;4.00;4.00;;;;;26.50;26.85;99900.31;5076381;28;45629;-79
2022/08/14 05:33:13;;;;;;;;;4.00;4.00;;;;;26.51;27.46;99893.88;5076366;27;45638;-79
2022/08/14 05:35:38;;;;;;;;;5.00;4.50;;;;;26.50;27.55;99891.44;5076862;27;46641;-81
2022/08/14 05:41:26;;;;;;;;;4.50;4.50;;;;;26.44;27.36;99869.00;5076005;28;45636;-76
2022/08/14 05:43:51;;;;;;;;;4.50;4.25;;;;;26.44;27.34;99877.06;5076485;27;45556;-75
2022/08/14 05:46:22;;;;;;;;;4.25;4.00;;;;;26.42;27.70;99875.63;5076237;27;46264;-74
2022/08/14 05:48:49;;;;;;;;;5.00;5.00;;;;;26.38;27.72;99861.84;5076003;27;46339;-74
2022/08/14 05:51:14;;;;;;;;;4.00;4.00;;;;;26.38;27.72;99852.97;5076010;27;45644;-74
2022/08/14 05:53:40;;;;;;;;;4.50;4.50;;;;;26.35;27.57;99840.81;5076218;28;45620;-76
2022/08/14 05:56:05;;;;;;;;;4.00;4.00;;;;;26.35;27.74;99848.88;5076271;27;45595;-76
2022/08/14 05:58:31;;;;;;;;;5.25;4.75;;;;;26.36;27.85;99858.56;5076093;27;46222;-77
2022/08/14 06:00:56;;;;;;;;;4.00;3.00;;;;;26.37;27.89;99854.00;5074706;27;45679;-78
2022/08/14 06:03:22;;;;;;;;;5.00;5.00;;;;;26.42;27.71;99865.72;5075948;28;45914;-77
2022/08/14 06:05:51;;;;;;;;;5.00;4.00;;;;;26.44;27.49;99858.25;5075856;27;46512;-77
2022/08/14 06:11:58;;;;;;;;;4.75;4.00;;;;;26.48;27.75;99853.22;5025230;28;45834;-77
2022/08/14 06:14:23;;;;;;;;;5.50;5.50;;;;;26.47;27.62;99860.47;5033366;28;46082;-80
2022/08/14 06:16:49;;;;;;;;;4.00;4.00;;;;;26.51;27.96;99858.94;5015913;28;47627;-77
2022/08/14 06:19:14;;;;;;;;;4.50;4.00;;;;;26.53;27.71;99856.84;5033043;28;45808;-79
2022/08/14 06:21:39;;;;;;;;;4.75;4.00;;;;;26.52;28.09;99854.38;5032863;28;45759;-79
2022/08/14 06:24:05;;;;;;;;;5.75;5.00;;;;;26.52;27.96;99854.38;5033179;28;45735;-77
2022/08/14 06:26:31;;;;;;;;;4.75;4.25;;;;;26.52;27.87;99849.03;5032754;28;45985;-80
2022/08/14 06:28:56;;;;;;;;;5.25;5.00;;;;;26.52;27.55;99859.75;5032836;28;45665;-81
2022/08/14 06:31:21;;;;;;;;;4.00;4.00;;;;;26.48;27.83;99847.84;5032507;28;45654;-77
2022/08/14 06:33:47;;;;;;;;;6.00;5.50;;;;;26.51;27.81;99852.75;5033023;28;45716;-80
2022/08/14 06:36:16;;;;;;;;;4.00;4.00;;;;;26.48;28.25;99862.09;5032331;28;45713;-76
2022/08/14 06:38:41;;;;;;;;;5.00;5.00;;;;;26.45;28.18;99867.13;5032863;28;46064;-83
2022/08/14 06:41:06;;;;;;;;;5.00;4.25;;;;;26.44;27.92;99865.50;5032590;28;45755;-81
2022/08/14 06:43:32;;;;;;;;;6.00;5.75;;;;;26.43;28.23;99875.41;5016602;28;45700;-74
2022/08/14 06:45:57;;;;;;;;;8.00;8.00;;;;;26.44;28.24;99878.94;5057897;28;45606;-79
2022/08/14 06:48:24;;;;;;;;;10.50;8.00;;;;;26.43;28.40;99875.41;5075039;27;45884;-77
2022/08/14 06:50:52;;;;;;;;;10.25;7.25;;;;;26.43;28.38;99874.59;5075143;27;45722;-78
2022/08/14 06:56:39;;;;;;;;;5.25;5.25;;;;;26.45;28.00;99873.28;5074824;28;45659;-77
2022/08/14 06:59:04;;;;;;;;;7.00;6.00;;;;;26.47;28.58;99878.44;5075099;27;46381;-81
2022/08/14 07:06:58;;;;;;;;;5.75;4.25;;;;;26.50;28.43;99883.38;5074484;28;46362;-81
2022/08/14 07:09:23;;;;;;;;;6.00;6.00;;;;;26.49;28.84;99887.94;5074970;27;45728;-80
2022/08/14 07:11:49;;;;;;;;;5.75;5.75;;;;;26.49;28.69;99885.25;5073925;27;45839;-79
2022/08/14 07:14:14;;;;;;;;;5.00;5.00;;;;;26.49;29.02;99898.69;5075149;27;45719;-76
2022/08/14 07:16:40;;;;;;;;;4.00;4.00;;;;;26.46;28.77;99893.75;5074765;27;45607;-80
2022/08/14 07:19:07;;;;;;;;;7.25;7.00;;;;;26.49;28.97;99903.22;5074811;27;45710;-82
2022/08/14 07:21:33;;;;;;;;;6.50;6.00;;;;;26.46;28.83;99899.13;5074585;27;45720;-80
2022/08/14 07:23:58;;;;;;;;;4.75;4.75;;;;;26.47;28.88;99908.81;5074983;27;45533;-81
2022/08/14 07:26:23;;;;;;;;;5.00;5.00;;;;;26.48;28.89;99904.28;5074251;27;46315;-83
2022/08/14 07:28:49;;;;;;;;;5.50;4.75;;;;;26.52;28.73;99900.06;5074653;27;46239;-82
2022/08/14 07:31:14;;;;;;;;;4.50;4.50;;;;;26.54;29.15;99885.38;5073935;27;45467;-80
2022/08/14 07:33:47;;;;;;;;;5.75;5.75;;;;;26.56;29.32;99887.84;5074488;27;45861;-82
2022/08/14 07:36:14;;;;;;;;;4.00;4.00;;;;;26.57;29.12;99890.28;5074079;27;47367;-80
2022/08/14 07:42:01;;;;;;;;;6.00;5.25;;;;;26.57;28.52;99909.09;5074270;28;45790;-82
2022/08/14 07:44:26;;;;;;;;;5.25;5.25;;;;;26.59;28.61;99893.56;5074141;27;45712;-79
2022/08/14 07:46:52;;;;;;;;;5.50;4.00;;;;;26.61;28.53;99891.44;5074075;27;46710;-81
2022/08/14 07:49:18;;;;;;;;;6.00;5.50;;;;;26.61;28.62;99882.59;5073844;27;46241;-79
2022/08/14 07:51:44;;;;;;;;;5.75;5.00;;;;;26.58;28.61;99874.97;5074132;27;45728;-81
2022/08/14 07:54:11;;;;;;;;;6.75;5.25;;;;;26.49;28.29;99885.25;5074185;27;45579;-80
2022/08/14 07:56:37;;;;;;;;;5.00;4.00;;;;;26.42;28.46;99879.16;5073739;27;46581;-80
2022/08/14 07:59:04;;;;;;;;;5.00;5.00;;;;;26.29;28.85;99868.59;5089733;27;47591;-81
2022/08/14 08:01:32;;;;;;;;;4.50;4.25;;;;;26.27;28.68;99876.06;5074322;27;45711;-74
2022/08/14 08:04:02;;;;;;;;;6.50;5.75;;;;;26.18;29.07;99877.41;5074360;27;45626;-76
2022/08/14 08:06:28;;;;;;;;;5.00;4.25;;;;;26.14;28.94;99887.78;5073924;27;46745;-83
2022/08/14 08:12:19;;;;;;;;;5.00;5.00;;;;;26.07;29.49;99879.00;5067530;28;45738;-80
2022/08/14 08:14:45;;;;;;;;;4.25;4.25;;;;;26.06;29.65;99871.19;5074564;28;45637;-78
2022/08/14 08:17:11;;;;;;;;;5.75;5.75;;;;;26.01;30.08;99863.81;5074009;28;45698;-80
2022/08/14 08:19:37;;;;;;;;;4.75;4.75;;;;;26.01;30.28;99874.56;5074080;27;45647;-84
2022/08/14 08:22:03;;;;;;;;;3.75;3.75;;;;;26.01;30.39;99885.28;5073684;27;45723;-80
2022/08/14 08:24:29;;;;;;;;;6.00;6.00;;;;;26.00;30.60;99880.97;5073522;27;45522;-84
2022/08/14 08:26:54;;;;;;;;;6.00;6.00;;;;;26.02;30.63;99886.13;5073576;27;46642;-82
2022/08/14 08:29:21;;;;;;;;;6.00;5.00;;;;;26.03;30.42;99899.28;5073931;27;46248;-79
2022/08/14 08:31:51;;;;;;;;;6.00;4.50;;;;;26.08;30.70;99903.97;5073597;27;45717;-79
2022/08/14 08:34:17;;;;;;;;;5.50;5.25;;;;;26.13;31.29;99914.84;5073856;27;45711;-80
2022/08/14 08:36:43;;;;;;;;;5.75;5.75;;;;;26.16;31.35;99909.88;5073722;27;45674;-76
2022/08/14 08:39:09;;;;;;;;;6.00;5.75;;;;;26.21;31.96;99912.69;5073614;27;47148;-80
2022/08/14 08:41:42;;;;;;;;;8.25;7.25;;;;;26.26;32.46;99895.91;5073655;27;45597;-81
2022/08/14 08:44:08;;;;;;;;;6.00;6.00;;;;;26.31;33.54;99909.47;5074629;27;45622;-81
2022/08/14 08:46:33;;;;;;;;;6.00;6.00;;;;;26.38;33.98;99888.72;5073632;27;45642;-81
2022/08/14 08:48:59;;;;;;;;;6.00;5.00;;;;;26.47;34.37;99900.75;5073482;27;46118;-83
2022/08/14 08:51:30;;;;;;;;;6.75;6.00;;;;;26.51;34.85;99880.44;5073399;27;45603;-82
2022/08/14 08:57:17;;;;;;;;;6.00;5.00;;;;;26.63;34.77;99870.53;5073628;28;45710;-83
2022/08/14 08:59:42;;;;;;;;;6.00;5.75;;;;;26.70;35.09;99868.56;5073503;27;46269;-83
2022/08/14 09:02:09;;;;;;;;;7.00;6.00;;;;;26.77;35.10;99875.72;5071720;28;45926;-82
2022/08/14 09:04:37;;;;;;;;;7.00;5.00;;;;;26.82;35.08;99876.66;5073696;27;45824;-83
2022/08/14 09:07:03;;;;;;;;;6.00;5.75;;;;;26.88;35.21;99878.44;5072842;27;46676;-78
2022/08/14 09:09:30;;;;;;;;;6.00;4.00;;;;;26.97;34.67;99886.97;5073076;27;46312;-82
2022/08/14 09:12:02;;;;;;;;;6.50;5.25;;;;;27.03;34.86;99876.09;5072766;27;45664;-82
2022/08/14 09:14:30;;;;;;;;;5.25;5.25;;;;;27.09;34.68;99902.06;5073549;27;45681;-81
2022/08/14 09:16:57;;;;;;;;;6.25;6.00;;;;;27.12;34.72;99855.03;5073221;27;46438;-76
2022/08/14 09:19:24;;;;;;;;;5.75;5.00;;;;;27.22;34.42;99874.09;5073305;27;46211;-80
2022/08/14 09:21:49;;;;;;;;;5.00;5.00;;;;;27.29;34.14;99855.13;5073303;27;45682;-82
2022/08/14 09:27:36;;;;;;;;;6.25;5.00;;;;;27.41;34.23;99867.53;5072705;28;45999;-82
2022/08/14 09:30:04;;;;;;;;;5.00;5.00;;;;;27.50;34.47;99862.63;5072956;27;46062;-78
2022/08/14 09:32:40;;;;;;;;;5.75;5.50;;;;;27.59;34.07;99865.75;5072952;27;45562;-80
2022/08/14 09:35:20;;;;;;;;;6.00;5.50;;;;;27.70;33.86;99883.75;5075337;27;45803;-81
2022/08/14 09:37:54;;;;;;;;;5.00;5.00;;;;;27.80;34.04;99878.59;5076273;27;45545;-79
2022/08/14 09:40:34;;;;;;;;;6.00;6.00;;;;;27.92;34.41;99874.78;5076445;27;45593;-82
2022/08/14 09:43:21;;;;;;;;;6.00;4.25;;;;;28.07;33.21;99870.75;5076582;27;45630;-80
2022/08/14 09:45:49;;;;;;;;;6.75;6.75;;;;;28.15;33.55;99865.81;5076047;28;45566;-77
2022/08/14 09:48:19;;;;;;;;;7.00;5.00;;;;;28.28;33.82;99875.50;5076426;28;46526;-77
2022/08/14 09:50:49;;;;;;;;;4.75;4.75;;;;;28.36;33.48;99875.06;5076169;27;46101;-78
2022/08/14 09:53:43;;;;;;;;;6.00;5.00;;;;;28.41;33.37;99866.25;5076668;27;45700;-79
2022/08/14 09:56:10;;;;;;;;;6.00;5.50;;;;;28.47;33.07;99862.59;5076111;27;45638;-74
2022/08/14 09:58:38;;;;;;;;;6.00;6.00;;;;;28.55;33.38;99860.34;5075776;27;46911;-79
2022/08/14 10:01:14;;;;;;;;;4.75;4.00;;;;;28.60;33.25;99860.41;5075582;27;47148;-76
2022/08/14 10:04:18;;;;;;;;;4.00;4.00;;;;;28.66;33.07;99872.09;5076132;27;45651;-72
2022/08/14 10:06:44;;;;;;;;;4.50;4.50;;;;;28.71;32.89;99858.69;5075807;27;45788;-75
2022/08/14 10:09:10;;;;;;;;;7.00;6.00;;;;;28.78;33.16;99867.44;5076081;27;45635;-82
2022/08/14 10:11:38;;;;;;;;;4.50;3.50;;;;;28.84;33.04;99854.84;5075447;28;46208;-78
2022/08/14 10:14:17;;;;;;;;;5.25;5.00;;;;;28.89;32.98;99861.16;5075947;27;45683;-81
2022/08/14 10:16:51;;;;;;;;;5.00;5.00;;;;;28.93;32.36;99867.69;5075860;28;45679;-77
2022/08/14 10:19:20;;;;;;;;;6.25;5.25;;;;;28.95;32.35;99876.34;5075728;27;46964;-81
2022/08/14 10:22:07;;;;;;;;;5.75;4.75;;;;;28.98;32.29;99867.78;5075715;27;46104;-83
2022/08/14 10:24:45;;;;;;;;;5.25;5.25;;;;;28.96;32.34;99864.50;5075483;27;45677;-82
2022/08/14 10:27:22;;;;;;;;;4.00;4.00;;;;;28.94;31.73;99857.69;5075985;27;45612;-83
2022/08/14 10:29:50;;;;;;;;;6.25;5.25;;;;;28.94;32.21;99866.63;5075501;28;46349;-79
2022/08/14 10:32:16;;;;;;;;;4.00;4.00;;;;;28.95;31.32;99865.56;5075463;27;46040;-82
2022/08/14 10:34:41;;;;;;;;;4.00;4.00;;;;;28.92;31.45;99876.03;5075885;27;45518;-83
2022/08/14 10:37:10;;;;;;;;;6.00;5.00;;;;;28.94;32.02;99876.59;5075855;27;45618;-83
2022/08/14 10:39:37;;;;;;;;;4.50;4.50;;;;;28.95;32.04;99897.09;5075454;27;45831;-84
2022/08/14 10:42:14;;;;;;;;;4.25;4.25;;;;;28.95;31.62;99889.84;5075126;27;47186;-83
2022/08/14 10:44:44;;;;;;;;;5.00;4.75;;;;;28.97;31.27;99893.13;5075438;27;45818;-84
2022/08/14 10:47:12;;;;;;;;;4.25;4.25;;;;;28.98;31.26;99881.25;5074614;28;45612;-79
2022/08/14 10:49:49;;;;;;;;;6.50;6.00;;;;;29.06;31.60;99882.72;5075220;28;45819;-82
2022/08/14 10:55:40;;;;;;;;;6.00;4.25;;;;;29.15;31.81;99879.34;5075733;28;45561;-81
2022/08/14 10:58:10;;;;;;;;;6.00;5.00;;;;;29.20;31.56;99875.91;5076099;27;45602;-81
2022/08/14 11:00:38;;;;;;;;;6.75;6.00;;;;;29.24;31.74;99879.75;5075082;27;46913;-80
2022/08/14 11:03:08;;;;;;;;;4.00;3.50;;;;;29.27;32.02;99884.63;5074819;27;46195;-79
2022/08/14 11:05:40;;;;;;;;;6.00;6.00;;;;;29.30;32.20;99889.56;5074961;27;45590;-82
2022/08/14 11:11:26;;;;;;;;;5.50;5.50;;;;;29.39;31.81;99882.69;5074031;28;45733;-79
2022/08/14 11:13:56;;;;;;;;;5.00;5.00;;;;;29.39;31.82;99884.56;5074894;27;45616;-81
2022/08/14 11:16:23;;;;;;;;;4.25;3.00;;;;;29.37;32.06;99887.50;5074368;27;45635;-80
2022/08/14 11:18:50;;;;;;;;;4.25;3.25;;;;;29.38;31.63;99886.44;5073540;28;45860;-79
2022/08/14 11:21:19;;;;;;;;;6.00;6.00;;;;;29.42;31.77;99881.38;5073055;27;48790;-82
2022/08/14 11:27:08;;;;;;;;;4.00;3.00;;;;;29.51;31.60;99896.88;5074402;28;45634;-81
2022/08/14 11:29:35;;;;;;;;;7.00;7.00;;;;;29.51;31.63;99887.97;5074735;27;45845;-82
2022/08/14 11:32:02;;;;;;;;;5.25;5.00;;;;;29.50;31.48;99894.44;5072918;28;48080;-78
2022/08/14 11:34:27;;;;;;;;;6.00;5.25;;;;;29.47;31.91;99882.25;5074901;28;45996;-80
2022/08/14 11:36:53;;;;;;;;;5.00;5.00;;;;;29.47;31.97;99884.97;5074622;27;45715;-78
2022/08/14 11:42:45;;;;;;;;;6.25;6.25;;;;;29.52;32.00;99884.22;5073778;28;45951;-80
2022/08/14 11:45:11;;;;;;;;;6.00;5.75;;;;;29.57;32.12;99901.28;5074445;27;46679;-82
2022/08/14 11:47:37;;;;;;;;;6.25;5.75;;;;;29.61;32.37;99898.88;5072468;28;45593;-80
2022/08/14 11:50:18;;;;;;;;;6.00;6.00;;;;;29.67;32.57;99894.38;5072934;28;45662;-78
2022/08/14 11:52:44;;;;;;;;;6.75;6.50;;;;;29.71;32.69;99906.31;5073950;28;46556;-78
2022/08/14 11:55:12;;;;;;;;;7.00;7.00;;;;;29.71;33.45;99904.41;5074104;28;46293;-82
2022/08/14 11:57:39;;;;;;;;;7.50;7.50;;;;;29.69;34.27;99901.13;5089361;27;45664;-80
2022/08/14 12:00:08;;;;;;;;;6.25;6.25;;;;;29.65;34.60;99900.00;5074396;28;45678;-81
2022/08/14 12:02:34;;;;;;;;;8.25;8.25;;;;;29.62;35.08;99905.94;5073703;28;45822;-81
2022/08/14 12:05:00;;;;;;;;;9.00;7.75;;;;;29.56;35.17;99909.63;5073982;28;45813;-78
2022/08/14 12:07:26;;;;;;;;;9.00;8.00;;;;;29.53;35.51;99907.41;5106544;27;45641;-78
2022/08/14 12:13:19;;;;;;;;;8.00;8.00;;;;;29.38;36.16;99912.63;5063492;28;45744;-79
2022/08/14 12:15:59;;;;;;;;;6.00;6.00;;;;;29.28;36.24;99910.56;5073847;27;46096;-76
2022/08/14 12:18:33;;;;;;;;;7.00;7.00;;;;;29.23;35.92;99913.19;5073848;27;45742;-81
2022/08/14 12:21:18;;;;;;;;;6.50;6.00;;;;;29.13;37.11;99924.66;5074196;27;45739;-79
2022/08/14 12:23:47;;;;;;;;;6.75;6.75;;;;;29.05;36.81;99921.53;5074002;28;46624;-81
2022/08/14 12:26:19;;;;;;;;;9.00;7.00;;;;;28.95;37.44;99916.81;5074378;27;46209;-80
2022/08/14 12:28:50;;;;;;;;;8.00;7.00;;;;;28.89;37.42;99922.38;5074254;27;45640;-79
2022/08/14 12:31:19;;;;;;;;;7.50;6.25;;;;;28.85;36.90;99926.63;5073776;27;45803;-81
2022/08/14 12:33:58;;;;;;;;;6.00;6.00;;;;;28.81;36.96;99934.41;5073347;27;46635;-77
2022/08/14 12:36:29;;;;;;;;;6.00;5.00;;;;;28.77;37.20;99941.34;5089251;27;47105;-75
2022/08/14 12:38:56;;;;;;;;;5.25;5.25;;;;;28.74;37.54;99939.13;5073683;27;45808;-82
2022/08/14 12:41:23;;;;;;;;;5.25;5.25;;;;;28.73;37.59;99946.38;5072198;28;45845;-81
2022/08/14 12:43:56;;;;;;;;;7.75;6.25;;;;;28.68;38.39;99942.75;5073429;27;47423;-83
2022/08/14 12:46:22;;;;;;;;;6.00;5.50;;;;;28.63;38.22;99953.47;5089009;27;47243;-81
2022/08/14 12:48:47;;;;;;;;;5.00;5.00;;;;;28.61;39.22;99944.81;5073121;27;45523;-82
2022/08/14 12:51:18;;;;;;;;;5.75;5.00;;;;;28.55;39.06;99946.59;5073369;27;45628;-83
2022/08/14 12:53:43;;;;;;;;;6.50;4.25;;;;;28.52;39.52;99943.56;5075827;27;45903;-84
2022/08/14 12:56:11;;;;;;;;;4.00;4.00;;;;;28.48;39.30;99939.72;5073375;27;45676;-84